Time;durP1;ratioP1;P1;durP2;ratioP2;P2;SDS_P1;SDS_P2;PMS_P1;PMS_P2;Temp;Humidity;BMP_temperature;BMP_pressure;BME280_temperature;BME280_humidity;BME280_pressure;Samples;Min_cycle;Max_cycle;Signal;HPM_P1;HPM_P2
2021/07/16 00:01:54;;;;;;;3.90;3.00;;;25.70;99.90;;;;;;4998540;28;20202;-95
2021/07/16 00:04:29;;;;;;;5.30;3.53;;;26.00;99.90;;;;;;4981126;28;20639;-96
2021/07/16 00:07:00;;;;;;;4.07;2.90;;;26.00;99.90;;;;;;4998300;28;20301;-95
2021/07/16 00:09:31;;;;;;;4.63;3.07;;;25.90;99.90;;;;;;4998182;28;20292;-95
2021/07/16 00:12:03;;;;;;;5.73;3.00;;;26.00;99.90;;;;;;4997328;28;20222;-94
2021/07/16 00:14:34;;;;;;;5.40;3.30;;;26.10;99.90;;;;;;4998457;28;20210;-95
2021/07/16 00:17:06;;;;;;;5.00;2.90;;;25.90;99.90;;;;;;4981001;28;20219;-95
2021/07/16 00:19:45;;;;;;;6.10;3.00;;;25.60;99.90;;;;;;5003542;28;20210;-95
2021/07/16 00:22:19;;;;;;;5.80;3.20;;;25.90;99.90;;;;;;4997640;28;20238;-95
2021/07/16 00:24:50;;;;;;;3.93;3.20;;;25.70;99.90;;;;;;4997787;28;20620;-95
2021/07/16 00:27:21;;;;;;;3.40;3.00;;;25.50;99.90;;;;;;4997812;28;20258;-95
2021/07/16 00:29:55;;;;;;;2.97;2.67;;;25.60;99.90;;;;;;4998357;28;20547;-94
2021/07/16 00:32:26;;;;;;;5.10;3.00;;;25.40;99.90;;;;;;4997421;28;20301;-95
2021/07/16 00:34:59;;;;;;;6.10;2.90;;;25.20;99.90;;;;;;4997534;28;20214;-96
2021/07/16 00:37:30;;;;;;;4.43;3.13;;;25.40;99.90;;;;;;4997443;28;20241;-94
2021/07/16 00:40:02;;;;;;;5.53;3.13;;;25.20;99.90;;;;;;4997152;28;20293;-95
2021/07/16 00:42:34;;;;;;;4.10;3.13;;;25.20;99.90;;;;;;4998349;28;20245;-96
2021/07/16 00:45:08;;;;;;;3.93;2.87;;;25.00;99.90;;;;;;4998884;28;20281;-96
2021/07/16 00:47:41;;;;;;;6.23;3.37;;;24.60;99.90;;;;;;5000265;28;20241;-96
2021/07/16 00:50:18;;;;;;;4.87;3.07;;;25.00;99.90;;;;;;5014362;28;20275;-96
2021/07/16 00:52:50;;;;;;;4.73;2.93;;;24.80;99.90;;;;;;4997154;28;20194;-96
2021/07/16 00:55:22;;;;;;;3.43;2.73;;;24.70;99.90;;;;;;5015972;28;20574;-95
2021/07/16 00:57:54;;;;;;;6.43;3.20;;;24.80;99.90;;;;;;4984968;28;20214;-95
2021/07/16 01:00:26;;;;;;;6.73;3.17;;;25.00;99.90;;;;;;5000166;28;20242;-95
2021/07/16 01:02:58;;;;;;;4.23;2.90;;;25.00;99.90;;;;;;4981430;28;20272;-95
2021/07/16 01:05:34;;;;;;;4.73;3.10;;;25.40;99.90;;;;;;4989010;28;20278;-96
2021/07/16 01:08:17;;;;;;;4.67;3.27;;;25.20;99.90;;;;;;4999925;28;20268;-96
2021/07/16 01:10:48;;;;;;;4.50;2.87;;;24.90;99.90;;;;;;4998317;28;20268;-95
2021/07/16 01:13:19;;;;;;;4.40;2.80;;;25.10;99.90;;;;;;4998985;28;20588;-96
2021/07/16 01:15:51;;;;;;;6.83;3.20;;;25.70;99.90;;;;;;4999822;28;20310;-96
2021/07/16 01:18:26;;;;;;;4.60;2.73;;;25.90;99.90;;;;;;5009976;28;20213;-95
2021/07/16 01:21:00;;;;;;;5.57;3.00;;;26.30;99.90;;;;;;5016269;28;20246;-96
2021/07/16 01:23:34;;;;;;;4.83;3.37;;;26.40;99.90;;;;;;5000302;28;20217;-96
2021/07/16 01:26:07;;;;;;;4.00;3.00;;;26.70;99.90;;;;;;5015932;28;20270;-95
2021/07/16 01:28:40;;;;;;;3.40;3.10;;;27.00;99.90;;;;;;5015227;28;20219;-96
2021/07/16 01:31:12;;;;;;;4.80;2.90;;;27.10;99.90;;;;;;5012500;28;20210;-94
2021/07/16 01:33:44;;;;;;;3.57;2.97;;;27.20;99.90;;;;;;5008749;28;20224;-94
2021/07/16 01:36:15;;;;;;;5.10;3.00;;;27.20;99.90;;;;;;5026648;28;20237;-96
2021/07/16 01:38:50;;;;;;;5.30;3.17;;;27.70;99.90;;;;;;5024724;28;20243;-94
2021/07/16 01:41:21;;;;;;;5.40;2.90;;;27.80;99.90;;;;;;5025260;28;20198;-94
2021/07/16 01:43:53;;;;;;;4.00;3.17;;;28.10;99.90;;;;;;5021371;28;20253;-93
2021/07/16 01:46:24;;;;;;;3.67;2.90;;;27.80;99.90;;;;;;4982797;28;20226;-96
2021/07/16 01:48:56;;;;;;;3.63;2.90;;;27.50;99.90;;;;;;4997055;28;20293;-94
2021/07/16 01:51:28;;;;;;;6.00;3.10;;;27.80;99.90;;;;;;4980787;28;20244;-95
2021/07/16 01:54:02;;;;;;;4.00;3.13;;;27.30;99.90;;;;;;4997323;28;20207;-95
2021/07/16 01:56:34;;;;;;;5.23;3.20;;;27.00;99.90;;;;;;4996013;28;20268;-94
2021/07/16 01:59:05;;;;;;;4.03;2.67;;;26.20;99.90;;;;;;4996137;28;20222;-94
2021/07/16 02:01:36;;;;;;;4.57;2.80;;;26.60;99.90;;;;;;4994862;28;20594;-94
2021/07/16 02:04:08;;;;;;;4.47;2.67;;;26.70;99.90;;;;;;4996011;28;20292;-94
2021/07/16 02:06:40;;;;;;;5.57;2.60;;;27.00;99.90;;;;;;4996004;28;20676;-94
2021/07/16 02:09:14;;;;;;;3.07;2.47;;;27.40;99.90;;;;;;4996011;28;20218;-95
2021/07/16 02:11:45;;;;;;;3.43;2.70;;;26.90;99.90;;;;;;4994590;28;20716;-95
2021/07/16 02:14:17;;;;;;;5.90;2.90;;;27.00;99.90;;;;;;4982144;28;20206;-94
2021/07/16 02:16:48;;;;;;;4.60;2.67;;;27.40;99.90;;;;;;4999402;28;20247;-94
2021/07/16 02:19:19;;;;;;;3.97;3.10;;;26.20;99.90;;;;;;5000288;28;20248;-95
2021/07/16 02:21:52;;;;;;;4.40;2.70;;;24.80;99.90;;;;;;4999393;28;20217;-95
2021/07/16 02:24:29;;;;;;;3.63;2.80;;;24.70;99.90;;;;;;5000010;28;20214;-96
2021/07/16 02:26:59;;;;;;;3.90;2.73;;;24.70;99.90;;;;;;4999641;28;20237;-95
2021/07/16 02:29:30;;;;;;;3.93;2.70;;;24.60;99.90;;;;;;4999807;28;20260;-94
2021/07/16 02:32:02;;;;;;;3.40;3.10;;;24.30;99.90;;;;;;4999193;28;20211;-94
2021/07/16 02:34:33;;;;;;;5.70;3.10;;;23.90;99.90;;;;;;4998837;28;20659;-94
2021/07/16 02:37:04;;;;;;;3.87;3.20;;;23.60;99.90;;;;;;4998989;28;20290;-93
2021/07/16 02:39:37;;;;;;;5.73;2.90;;;23.00;99.90;;;;;;4998883;28;20261;-94
2021/07/16 02:42:08;;;;;;;3.80;3.07;;;22.80;99.90;;;;;;4998216;28;20249;-94
2021/07/16 02:44:40;;;;;;;4.30;2.90;;;22.80;99.90;;;;;;4999118;28;20730;-94
2021/07/16 02:47:11;;;;;;;3.67;2.90;;;22.60;99.90;;;;;;4998503;28;20265;-95
2021/07/16 02:49:42;;;;;;;4.63;3.13;;;22.40;99.90;;;;;;4998899;28;20274;-94
2021/07/16 02:52:13;;;;;;;7.40;2.97;;;22.10;99.90;;;;;;4987848;28;20229;-94
2021/07/16 02:54:48;;;;;;;6.47;3.20;;;21.90;99.90;;;;;;4999151;28;20230;-94
2021/07/16 02:57:20;;;;;;;5.93;3.50;;;21.80;99.90;;;;;;4979213;28;20242;-96
2021/07/16 02:59:51;;;;;;;3.83;3.10;;;21.60;99.90;;;;;;4986453;28;20254;-94
2021/07/16 03:02:23;;;;;;;3.70;2.97;;;21.60;99.90;;;;;;4998897;28;20210;-94
2021/07/16 03:04:55;;;;;;;4.33;2.90;;;21.60;99.90;;;;;;4999847;28;20738;-94
2021/07/16 03:07:26;;;;;;;5.17;3.20;;;21.60;99.90;;;;;;4998999;28;20261;-94
2021/07/16 03:09:59;;;;;;;4.27;3.13;;;21.60;99.90;;;;;;4997980;28;20266;-95
2021/07/16 03:12:30;;;;;;;5.87;3.20;;;21.50;99.90;;;;;;4990256;28;20210;-95
2021/07/16 03:15:01;;;;;;;3.43;2.73;;;21.30;99.90;;;;;;5018279;28;20198;-95
2021/07/16 03:17:33;;;;;;;5.07;3.20;;;21.20;99.90;;;;;;5018516;28;20218;-95
2021/07/16 03:20:05;;;;;;;3.53;3.17;;;21.10;99.90;;;;;;5005699;28;20210;-96
2021/07/16 03:22:37;;;;;;;5.33;2.87;;;21.00;99.90;;;;;;5001061;28;20229;-96
2021/07/16 03:25:13;;;;;;;4.37;3.10;;;20.90;99.90;;;;;;4998905;28;20237;-95
2021/07/16 03:27:44;;;;;;;6.13;3.60;;;20.90;99.90;;;;;;4999616;28;20229;-95
2021/07/16 03:30:19;;;;;;;4.70;3.17;;;20.80;99.90;;;;;;4997765;28;20222;-95
2021/07/16 03:32:52;;;;;;;8.10;3.50;;;20.70;99.90;;;;;;4999195;28;20202;-95
2021/07/16 03:35:23;;;;;;;4.50;3.50;;;20.60;99.90;;;;;;5007567;28;20562;-95
2021/07/16 03:37:57;;;;;;;5.60;3.13;;;20.40;99.90;;;;;;5019054;28;20202;-94
2021/07/16 03:40:31;;;;;;;3.60;3.07;;;20.40;99.90;;;;;;5017329;28;20248;-95
2021/07/16 03:43:03;;;;;;;3.93;3.30;;;20.30;99.90;;;;;;5018328;28;20228;-96
2021/07/16 03:45:37;;;;;;;4.63;3.33;;;20.20;99.90;;;;;;5015121;28;20569;-95
2021/07/16 03:48:09;;;;;;;3.90;3.20;;;20.10;99.90;;;;;;4998666;28;20628;-95
2021/07/16 03:50:40;;;;;;;6.73;3.00;;;20.10;99.90;;;;;;5000093;28;20230;-96
2021/07/16 03:53:12;;;;;;;5.17;3.47;;;20.00;99.90;;;;;;5000427;28;20299;-95
2021/07/16 03:55:48;;;;;;;5.73;3.93;;;19.90;99.90;;;;;;5001866;28;20209;-96
2021/07/16 03:58:19;;;;;;;4.80;3.63;;;19.80;99.90;;;;;;5003511;28;20206;-96
2021/07/16 04:00:53;;;;;;;4.60;3.67;;;19.70;99.90;;;;;;5017097;28;20215;-96
2021/07/16 04:03:24;;;;;;;5.93;3.60;;;19.70;99.90;;;;;;5017962;28;20187;-96
2021/07/16 04:05:56;;;;;;;5.50;3.77;;;19.60;99.90;;;;;;5018733;28;20229;-93
2021/07/16 04:08:27;;;;;;;5.50;3.53;;;19.50;99.90;;;;;;5017127;28;20234;-95
2021/07/16 04:11:00;;;;;;;6.20;3.73;;;19.40;99.90;;;;;;5010924;28;20281;-95
2021/07/16 04:13:31;;;;;;;5.77;3.60;;;19.30;99.90;;;;;;5016320;28;20210;-95
2021/07/16 04:16:03;;;;;;;7.30;4.13;;;19.20;99.90;;;;;;4999963;28;20235;-94
2021/07/16 04:18:34;;;;;;;5.63;3.73;;;19.10;99.90;;;;;;4998078;28;20205;-94
2021/07/16 04:21:05;;;;;;;5.73;4.00;;;19.10;99.90;;;;;;4979538;28;20233;-96
2021/07/16 04:23:36;;;;;;;7.07;4.00;;;19.00;99.90;;;;;;4997492;28;20961;-96
2021/07/16 04:26:09;;;;;;;6.27;4.07;;;18.90;99.90;;;;;;4996506;28;20724;-95
2021/07/16 04:28:40;;;;;;;7.00;3.90;;;18.90;99.90;;;;;;4997138;28;20234;-93
2021/07/16 04:31:11;;;;;;;5.10;4.27;;;18.70;99.90;;;;;;4995668;28;20259;-93
2021/07/16 04:33:42;;;;;;;6.90;4.27;;;18.70;99.90;;;;;;4997515;28;20225;-92
2021/07/16 04:36:16;;;;;;;7.00;4.07;;;18.60;99.90;;;;;;4996319;28;20304;-93
2021/07/16 04:38:47;;;;;;;5.50;4.03;;;18.50;99.90;;;;;;4979363;28;20210;-94
2021/07/16 04:41:20;;;;;;;5.73;3.67;;;18.40;99.90;;;;;;4996087;28;20285;-95
2021/07/16 04:43:51;;;;;;;6.93;4.20;;;18.40;99.90;;;;;;4997563;28;20202;-94
2021/07/16 04:46:22;;;;;;;6.63;3.80;;;18.40;99.90;;;;;;4999068;28;20217;-93
2021/07/16 04:48:55;;;;;;;5.33;3.70;;;18.40;99.90;;;;;;4980692;28;20386;-93
2021/07/16 04:51:27;;;;;;;5.93;4.17;;;18.40;99.90;;;;;;4997041;28;20242;-93
2021/07/16 04:53:59;;;;;;;5.27;4.30;;;18.40;99.90;;;;;;5008413;28;20210;-92
2021/07/16 04:56:33;;;;;;;5.03;3.70;;;18.40;99.90;;;;;;5013193;28;20208;-93
2021/07/16 04:59:06;;;;;;;7.60;4.10;;;18.30;99.90;;;;;;5015023;28;20213;-93
2021/07/16 05:01:38;;;;;;;4.77;3.47;;;18.20;99.90;;;;;;5005830;28;20206;-93
2021/07/16 05:04:09;;;;;;;7.30;3.90;;;18.20;99.90;;;;;;4996484;28;20206;-93
2021/07/16 05:06:40;;;;;;;8.33;4.90;;;18.10;99.90;;;;;;4996290;28;20217;-94
2021/07/16 05:09:12;;;;;;;8.83;5.10;;;18.20;99.90;;;;;;4995151;28;20293;-94
2021/07/16 05:11:47;;;;;;;8.00;5.07;;;18.10;99.90;;;;;;4996441;28;20228;-94
2021/07/16 05:14:18;;;;;;;6.10;4.07;;;18.00;99.90;;;;;;4996351;28;20288;-95
2021/07/16 05:16:48;;;;;;;5.33;4.10;;;17.90;99.90;;;;;;4995537;28;20206;-94
2021/07/16 05:19:20;;;;;;;7.47;4.53;;;17.80;99.90;;;;;;4996248;28;20639;-95
2021/07/16 05:21:51;;;;;;;7.00;4.20;;;17.80;99.90;;;;;;4995382;28;20289;-95
2021/07/16 05:24:22;;;;;;;5.07;4.20;;;17.70;99.90;;;;;;4996148;28;20293;-93
2021/07/16 05:26:56;;;;;;;4.27;3.60;;;17.70;99.90;;;;;;4995771;28;20235;-94
2021/07/16 05:29:27;;;;;;;5.07;4.00;;;17.70;99.90;;;;;;4996122;28;20240;-94
2021/07/16 05:31:58;;;;;;;6.93;3.77;;;17.60;99.90;;;;;;4996007;28;20636;-93
2021/07/16 05:34:30;;;;;;;5.53;3.97;;;17.60;99.90;;;;;;4999363;28;20225;-93
2021/07/16 05:37:01;;;;;;;7.83;4.27;;;17.60;99.90;;;;;;5017057;28;20210;-93
2021/07/16 05:39:36;;;;;;;5.20;4.00;;;17.60;99.90;;;;;;5016992;28;20202;-94
2021/07/16 05:42:10;;;;;;;4.60;3.60;;;17.60;99.90;;;;;;5008182;28;20213;-94
2021/07/16 05:44:41;;;;;;;5.87;3.93;;;17.50;99.90;;;;;;4997705;28;20214;-92
2021/07/16 05:47:13;;;;;;;4.90;4.13;;;17.50;99.90;;;;;;4998743;28;20290;-92
2021/07/16 05:49:44;;;;;;;5.10;3.80;;;17.50;99.90;;;;;;5000893;28;20269;-92
2021/07/16 05:52:15;;;;;;;5.70;4.00;;;17.50;99.90;;;;;;4982658;28;20206;-92
2021/07/16 05:54:47;;;;;;;4.53;3.90;;;17.40;99.90;;;;;;4999958;28;20221;-93
2021/07/16 05:57:22;;;;;;;4.80;4.10;;;17.40;99.90;;;;;;5000103;28;20214;-92
2021/07/16 05:59:53;;;;;;;4.27;3.70;;;17.40;99.90;;;;;;5002121;28;20218;-94
2021/07/16 06:02:25;;;;;;;9.23;4.63;;;17.40;99.90;;;;;;4999462;28;20267;-94
2021/07/16 06:04:56;;;;;;;5.60;4.10;;;17.40;99.90;;;;;;5000128;28;20210;-94
2021/07/16 06:07:27;;;;;;;5.60;4.03;;;17.40;99.90;;;;;;4999906;28;20621;-95
2021/07/16 06:09:58;;;;;;;6.13;4.10;;;17.40;99.90;;;;;;4999379;28;20305;-96
2021/07/16 06:12:31;;;;;;;4.60;4.20;;;17.40;99.90;;;;;;4998620;28;20221;-95
2021/07/16 06:15:03;;;;;;;5.27;4.07;;;17.40;99.90;;;;;;4999543;28;20265;-94
2021/07/16 06:17:33;;;;;;;6.60;4.27;;;17.50;99.90;;;;;;4999682;28;20242;-95
2021/07/16 06:20:10;;;;;;;6.23;3.97;;;17.50;99.90;;;;;;4999168;28;20293;-94
2021/07/16 06:22:42;;;;;;;6.63;4.23;;;17.60;99.90;;;;;;5002024;28;20245;-96
2021/07/16 06:25:17;;;;;;;6.00;4.17;;;17.60;99.90;;;;;;4998937;28;20258;-94
2021/07/16 06:27:53;;;;;;;5.27;4.10;;;17.60;99.90;;;;;;4999822;28;20611;-94
2021/07/16 06:30:26;;;;;;;6.37;4.10;;;17.60;99.90;;;;;;4999850;28;20233;-94
2021/07/16 06:32:58;;;;;;;5.37;4.03;;;17.70;99.90;;;;;;4968109;28;20221;-94
2021/07/16 06:35:30;;;;;;;5.70;4.17;;;17.70;99.90;;;;;;5001988;28;20211;-94
2021/07/16 06:38:02;;;;;;;6.50;4.17;;;17.70;99.90;;;;;;5001439;28;20575;-94
2021/07/16 06:40:40;;;;;;;6.43;4.27;;;17.60;99.90;;;;;;5000126;28;20725;-88
2021/07/16 06:43:12;;;;;;;5.10;4.00;;;17.50;99.90;;;;;;5001349;28;20663;-95
2021/07/16 06:45:44;;;;;;;9.47;3.87;;;17.50;99.90;;;;;;4999310;28;20613;-94
2021/07/16 06:48:15;;;;;;;4.80;3.60;;;17.60;99.90;;;;;;4999043;28;20222;-94
2021/07/16 06:50:46;;;;;;;7.87;4.33;;;17.50;99.90;;;;;;4998060;28;20241;-94
2021/07/16 06:53:18;;;;;;;8.23;4.67;;;17.50;99.90;;;;;;4998745;28;20207;-94
2021/07/16 06:55:49;;;;;;;6.63;4.37;;;17.50;99.90;;;;;;4998894;28;20222;-94
2021/07/16 06:58:22;;;;;;;7.27;4.17;;;17.50;99.90;;;;;;4998077;28;20221;-94
2021/07/16 07:00:53;;;;;;;5.67;4.07;;;17.50;99.90;;;;;;5001889;28;20213;-93
2021/07/16 07:03:27;;;;;;;9.83;4.50;;;17.50;99.90;;;;;;5001516;28;20664;-94
2021/07/16 07:06:04;;;;;;;5.80;3.90;;;17.40;99.90;;;;;;5000953;28;20224;-94
2021/07/16 07:08:35;;;;;;;8.00;4.20;;;17.40;99.90;;;;;;5001128;28;20708;-92
2021/07/16 07:11:12;;;;;;;4.87;3.77;;;17.40;99.90;;;;;;5004744;28;20574;-93
2021/07/16 07:16:52;;;;;;;9.53;4.83;;;17.40;99.90;;;;;;5018500;28;20206;-93
2021/07/16 07:19:24;;;;;;;5.47;4.07;;;17.30;99.90;;;;;;5002723;28;20217;-93
2021/07/16 07:21:55;;;;;;;4.60;3.90;;;17.30;99.90;;;;;;4996820;28;20742;-93
2021/07/16 07:24:27;;;;;;;7.60;4.40;;;17.20;99.90;;;;;;4966388;28;20231;-93
2021/07/16 07:26:58;;;;;;;5.73;4.00;;;17.10;99.90;;;;;;4961775;28;20203;-93
2021/07/16 07:29:33;;;;;;;6.03;4.10;;;17.20;99.90;;;;;;4983058;28;20210;-93
2021/07/16 07:32:04;;;;;;;5.23;3.97;;;17.10;99.90;;;;;;4984020;28;20264;-94
2021/07/16 07:34:35;;;;;;;5.83;4.53;;;17.10;99.90;;;;;;5007230;28;20274;-93
2021/07/16 07:37:08;;;;;;;5.90;3.97;;;17.10;99.90;;;;;;5018355;28;20296;-94
2021/07/16 07:39:39;;;;;;;6.70;4.30;;;17.10;99.90;;;;;;5018023;28;20256;-93
2021/07/16 07:42:15;;;;;;;5.50;4.33;;;17.10;99.90;;;;;;5009559;28;20221;-94
2021/07/16 07:44:51;;;;;;;5.67;3.97;;;17.00;99.90;;;;;;5017609;28;20205;-94
2021/07/16 07:47:22;;;;;;;4.30;3.20;;;17.00;99.90;;;;;;5017509;28;20602;-95
2021/07/16 07:49:53;;;;;;;6.40;2.80;;;16.70;99.90;;;;;;5019068;28;20248;-94
2021/07/16 07:52:24;;;;;;;6.23;2.37;;;16.60;99.90;;;;;;5019306;28;20221;-93
2021/07/16 07:54:55;;;;;;;5.17;2.20;;;16.60;99.90;;;;;;5033652;28;20217;-94
2021/07/16 07:57:26;;;;;;;4.33;1.93;;;16.50;99.90;;;;;;5030300;28;20203;-94
2021/07/16 07:59:58;;;;;;;4.80;2.20;;;16.40;99.90;;;;;;5018221;28;20202;-95
2021/07/16 08:02:29;;;;;;;3.33;1.70;;;16.40;99.90;;;;;;5013561;28;20750;-93
2021/07/16 08:05:00;;;;;;;2.80;1.70;;;16.30;99.90;;;;;;5015004;28;20198;-93
2021/07/16 08:07:31;;;;;;;2.63;2.00;;;16.10;99.90;;;;;;5007669;28;20213;-93
2021/07/16 08:10:02;;;;;;;2.43;1.67;;;16.00;99.90;;;;;;4998134;28;20225;-92
2021/07/16 08:12:34;;;;;;;1.83;1.70;;;16.00;99.90;;;;;;5000044;28;20207;-93
2021/07/16 08:15:10;;;;;;;5.07;1.60;;;16.00;99.90;;;;;;4983007;28;20264;-93
2021/07/16 08:17:42;;;;;;;3.80;1.60;;;15.90;99.90;;;;;;4998323;28;20234;-93
2021/07/16 08:20:14;;;;;;;1.67;1.40;;;15.90;99.90;;;;;;4997520;28;20214;-94
2021/07/16 08:22:45;;;;;;;2.80;1.43;;;15.90;99.90;;;;;;4997585;28;20229;-94
2021/07/16 08:25:18;;;;;;;1.60;1.40;;;15.90;99.90;;;;;;4997055;28;20214;-94
2021/07/16 08:27:49;;;;;;;4.07;1.60;;;15.90;99.90;;;;;;4996896;28;20234;-94
2021/07/16 08:30:22;;;;;;;3.03;1.87;;;15.90;99.90;;;;;;4989503;28;20320;-94
2021/07/16 08:32:53;;;;;;;3.83;1.60;;;15.90;99.90;;;;;;4997808;28;20237;-94
2021/07/16 08:35:24;;;;;;;3.87;1.40;;;15.90;99.90;;;;;;4997443;28;20228;-94
2021/07/16 08:37:55;;;;;;;2.20;1.30;;;15.90;99.90;;;;;;4997992;28;20246;-94
2021/07/16 08:40:29;;;;;;;4.33;1.83;;;15.90;99.90;;;;;;5001044;28;20226;-94
2021/07/16 08:43:01;;;;;;;2.07;1.47;;;16.00;99.90;;;;;;4983090;28;20245;-93
2021/07/16 08:45:36;;;;;;;5.17;1.90;;;16.00;99.90;;;;;;4985146;28;20211;-95
2021/07/16 08:48:09;;;;;;;1.97;1.60;;;16.00;99.90;;;;;;4995833;28;20225;-93
2021/07/16 08:50:40;;;;;;;2.87;1.70;;;16.00;99.90;;;;;;4983537;28;20250;-92
2021/07/16 08:53:12;;;;;;;3.10;1.60;;;16.00;99.90;;;;;;4979154;28;20237;-92
2021/07/16 08:55:43;;;;;;;5.73;1.63;;;16.00;99.90;;;;;;4984329;28;20233;-92
2021/07/16 08:58:14;;;;;;;3.77;1.43;;;16.00;99.90;;;;;;4997617;28;20233;-91
2021/07/16 09:00:51;;;;;;;3.63;1.87;;;16.10;99.90;;;;;;4997155;28;20715;-93
2021/07/16 09:03:22;;;;;;;2.63;1.40;;;16.10;99.90;;;;;;4981603;28;20218;-93
2021/07/16 09:05:54;;;;;;;3.53;1.70;;;16.00;99.90;;;;;;4997357;28;20207;-93
2021/07/16 09:08:26;;;;;;;3.90;1.60;;;16.10;99.90;;;;;;4999594;28;20206;-92
2021/07/16 09:11:01;;;;;;;2.73;1.50;;;16.10;99.90;;;;;;5000426;28;20238;-92
2021/07/16 09:13:34;;;;;;;3.77;1.37;;;16.10;99.90;;;;;;4999276;28;20681;-92
2021/07/16 09:16:09;;;;;;;2.20;1.13;;;16.10;99.90;;;;;;5000272;28;20207;-93
2021/07/16 09:18:41;;;;;;;4.03;1.07;;;16.10;99.90;;;;;;5001438;28;20217;-93
2021/07/16 09:21:13;;;;;;;2.93;1.27;;;16.10;99.90;;;;;;4998569;28;20237;-93
2021/07/16 09:23:45;;;;;;;2.27;1.13;;;16.00;99.90;;;;;;5000954;28;20226;-93
2021/07/16 09:26:24;;;;;;;3.10;1.03;;;16.00;99.90;;;;;;5004636;28;20229;-94
2021/07/16 09:28:58;;;;;;;1.03;0.93;;;15.90;99.90;;;;;;5031723;28;20210;-95
2021/07/16 09:31:41;;;;;;;2.33;1.10;;;15.80;99.90;;;;;;5017206;28;20217;-93
2021/07/16 09:34:14;;;;;;;3.07;1.07;;;15.60;99.90;;;;;;5016672;28;20206;-92
2021/07/16 09:36:46;;;;;;;1.93;1.13;;;15.60;99.90;;;;;;5032376;28;20192;-94
2021/07/16 09:39:24;;;;;;;2.83;1.40;;;15.50;99.90;;;;;;5036610;28;20205;-92
2021/07/16 09:41:57;;;;;;;2.13;1.20;;;15.60;99.90;;;;;;5035939;28;20237;-93
2021/07/16 09:44:31;;;;;;;2.83;0.90;;;15.60;99.90;;;;;;5035427;28;20257;-93
2021/07/16 09:47:12;;;;;;;4.23;1.00;;;15.60;99.90;;;;;;5022457;28;20236;-93
2021/07/16 09:49:45;;;;;;;2.27;0.87;;;15.50;99.90;;;;;;4994355;28;20214;-92
2021/07/16 09:52:20;;;;;;;1.93;1.10;;;15.50;99.90;;;;;;4978472;28;20238;-93
2021/07/16 09:55:11;;;;;;;3.00;1.00;;;15.60;99.90;;;;;;4995378;28;20205;-94
2021/07/16 09:57:42;;;;;;;1.67;1.10;;;15.50;99.90;;;;;;4995334;28;20640;-93
2021/07/16 10:00:20;;;;;;;1.63;0.87;;;15.60;99.90;;;;;;4995253;28;20292;-93
2021/07/16 10:02:54;;;;;;;2.27;1.20;;;15.60;99.90;;;;;;4995343;28;20273;-93
2021/07/16 10:05:26;;;;;;;1.93;1.17;;;15.50;99.90;;;;;;4995687;28;20272;-92
2021/07/16 10:07:57;;;;;;;2.67;1.10;;;15.50;99.90;;;;;;4995752;28;20568;-92
2021/07/16 10:10:30;;;;;;;2.00;1.20;;;15.50;99.90;;;;;;4997940;28;20277;-93
2021/07/16 10:13:01;;;;;;;1.93;1.33;;;15.40;99.90;;;;;;5016240;28;20214;-93
2021/07/16 10:15:33;;;;;;;4.93;1.20;;;15.30;99.90;;;;;;5000450;28;20210;-93
2021/07/16 10:18:07;;;;;;;1.57;1.00;;;15.30;99.90;;;;;;5016905;28;20216;-94
2021/07/16 10:20:41;;;;;;;1.60;1.00;;;15.40;99.90;;;;;;5016062;28;20208;-93
2021/07/16 10:23:12;;;;;;;3.27;1.33;;;15.30;99.90;;;;;;5008007;28;20304;-93
2021/07/16 10:25:43;;;;;;;2.87;1.40;;;15.30;99.90;;;;;;4999206;28;20685;-93
2021/07/16 10:28:30;;;;;;;2.80;1.30;;;15.20;99.90;;;;;;4996349;28;20245;-94
2021/07/16 10:31:02;;;;;;;2.93;1.17;;;15.30;99.90;;;;;;4996079;28;20218;-93
2021/07/16 10:33:40;;;;;;;2.80;1.30;;;15.30;99.90;;;;;;4997105;28;20210;-93
2021/07/16 10:36:14;;;;;;;2.50;0.90;;;15.30;99.90;;;;;;5000858;28;20619;-93
2021/07/16 10:38:53;;;;;;;2.30;1.00;;;15.10;99.90;;;;;;4999800;28;20213;-93
2021/07/16 10:41:33;;;;;;;2.03;1.20;;;15.20;99.90;;;;;;4998760;28;20293;-93
2021/07/16 10:44:05;;;;;;;1.13;1.03;;;15.10;99.90;;;;;;4999905;28;20234;-94
2021/07/16 10:46:38;;;;;;;2.13;1.03;;;15.10;99.90;;;;;;4983021;28;20209;-94
2021/07/16 10:49:14;;;;;;;2.70;1.10;;;15.10;99.90;;;;;;5000119;28;20290;-94
2021/07/16 10:51:46;;;;;;;1.50;1.23;;;15.10;99.90;;;;;;4998699;28;20325;-92
2021/07/16 10:54:18;;;;;;;1.30;1.20;;;15.20;99.90;;;;;;4998443;28;20631;-92
2021/07/16 10:56:50;;;;;;;1.33;1.00;;;15.10;99.90;;;;;;4998664;28;20301;-92
2021/07/16 10:59:48;;;;;;;1.47;1.20;;;15.10;99.90;;;;;;4998200;28;20293;-92
2021/07/16 11:02:48;;;;;;;1.63;1.00;;;15.00;99.90;;;;;;4998091;28;20236;-92
2021/07/16 11:05:55;;;;;;;1.37;1.20;;;15.00;99.90;;;;;;4998358;28;20202;-93
2021/07/16 11:08:57;;;;;;;1.60;1.50;;;14.90;99.90;;;;;;4981045;28;20299;-93
2021/07/16 11:11:42;;;;;;;1.43;1.33;;;15.00;99.90;;;;;;4977366;28;20233;-93
2021/07/16 11:14:23;;;;;;;3.13;1.30;;;15.00;99.90;;;;;;4977487;28;20246;-93
2021/07/16 11:17:04;;;;;;;2.57;1.50;;;14.90;99.90;;;;;;4978785;28;20238;-92
2021/07/16 11:19:36;;;;;;;3.47;2.07;;;15.00;99.90;;;;;;4978986;28;20238;-93
2021/07/16 11:22:13;;;;;;;1.63;1.47;;;15.00;99.90;;;;;;4978062;28;20239;-93
2021/07/16 11:24:46;;;;;;;1.73;1.30;;;15.00;99.90;;;;;;4980003;28;20242;-94
2021/07/16 11:27:18;;;;;;;1.80;1.70;;;15.10;99.90;;;;;;4978475;28;20242;-93
2021/07/16 11:29:51;;;;;;;2.83;1.90;;;15.00;99.90;;;;;;4985328;28;20414;-91
2021/07/16 11:32:24;;;;;;;1.80;1.40;;;15.00;99.90;;;;;;4998000;28;20625;-93
2021/07/16 11:34:56;;;;;;;3.80;2.03;;;15.00;99.90;;;;;;4998300;28;20218;-93
2021/07/16 11:37:34;;;;;;;2.13;1.80;;;15.00;99.90;;;;;;4997940;28;20206;-93
2021/07/16 11:40:07;;;;;;;4.60;1.80;;;15.00;99.90;;;;;;4997393;28;20214;-94
2021/07/16 11:42:43;;;;;;;1.83;1.63;;;15.10;99.90;;;;;;4998200;28;20222;-93
2021/07/16 11:45:20;;;;;;;2.53;2.00;;;15.10;99.90;;;;;;4998532;28;20301;-93
2021/07/16 11:47:51;;;;;;;2.83;1.70;;;15.10;99.90;;;;;;4998505;28;20206;-93
2021/07/16 11:50:23;;;;;;;3.20;1.83;;;15.10;99.90;;;;;;5006529;28;20198;-92
2021/07/16 11:52:56;;;;;;;2.90;1.70;;;15.10;99.90;;;;;;4998615;28;20300;-92
2021/07/16 11:55:29;;;;;;;5.27;1.60;;;15.10;99.90;;;;;;5015251;28;20206;-92
2021/07/16 11:58:02;;;;;;;2.90;1.70;;;15.10;99.90;;;;;;5000708;28;20233;-93
2021/07/16 12:00:35;;;;;;;1.67;1.40;;;15.20;99.90;;;;;;4996747;28;20260;-93
2021/07/16 12:03:08;;;;;;;2.50;1.50;;;15.20;99.90;;;;;;4997013;28;20670;-92
2021/07/16 12:05:49;;;;;;;1.57;1.17;;;15.30;99.90;;;;;;4998279;28;20652;-93
2021/07/16 12:08:27;;;;;;;2.13;1.60;;;15.30;99.90;;;;;;4997346;28;20225;-93
2021/07/16 12:11:06;;;;;;;2.07;1.57;;;15.20;99.90;;;;;;5001549;28;20217;-92
2021/07/16 12:13:40;;;;;;;3.03;1.67;;;15.00;99.90;;;;;;4997863;28;20242;-92
2021/07/16 12:16:13;;;;;;;3.20;1.60;;;14.90;99.90;;;;;;4998288;28;20715;-93
2021/07/16 12:18:45;;;;;;;3.67;1.60;;;14.90;99.90;;;;;;4997885;28;20206;-93
2021/07/16 12:21:17;;;;;;;1.70;1.57;;;14.90;99.90;;;;;;4997002;28;20601;-94
2021/07/16 12:23:52;;;;;;;2.27;1.40;;;14.90;99.90;;;;;;4980744;28;20210;-93
2021/07/16 12:26:26;;;;;;;2.00;1.50;;;14.90;99.90;;;;;;4997932;28;20237;-94
2021/07/16 12:29:07;;;;;;;2.90;1.33;;;14.90;99.90;;;;;;4997187;28;20214;-93
2021/07/16 12:31:39;;;;;;;5.00;1.67;;;14.80;99.90;;;;;;4997454;28;20293;-94
2021/07/16 12:34:24;;;;;;;2.20;1.60;;;14.80;99.90;;;;;;4998689;28;20306;-93
2021/07/16 12:37:11;;;;;;;1.53;1.20;;;14.70;99.90;;;;;;5017652;28;20238;-94
2021/07/16 12:39:46;;;;;;;2.93;1.70;;;14.80;99.90;;;;;;5018352;28;20202;-93
2021/07/16 12:42:19;;;;;;;2.30;1.50;;;14.70;99.90;;;;;;5009341;28;20247;-94
2021/07/16 12:45:07;;;;;;;3.37;1.40;;;14.50;99.90;;;;;;4999326;28;20209;-94
2021/07/16 12:47:51;;;;;;;3.10;1.40;;;14.50;99.90;;;;;;5003764;28;20225;-93
2021/07/16 12:50:26;;;;;;;3.73;1.33;;;14.60;99.90;;;;;;5008432;28;20343;-93
2021/07/16 12:53:01;;;;;;;2.00;1.60;;;14.60;99.90;;;;;;5000064;28;20233;-92
2021/07/16 12:55:37;;;;;;;3.90;1.40;;;14.60;99.90;;;;;;4998027;28;20233;-92
2021/07/16 12:58:09;;;;;;;3.30;1.60;;;14.60;99.90;;;;;;4980202;28;20210;-93
2021/07/16 13:00:43;;;;;;;2.30;1.70;;;14.50;99.90;;;;;;5004710;28;20221;-90
2021/07/16 13:03:16;;;;;;;2.30;1.53;;;14.50;99.90;;;;;;5008945;28;20225;-91
2021/07/16 13:05:49;;;;;;;3.67;1.60;;;14.50;99.90;;;;;;5009902;28;20209;-92
2021/07/16 13:08:24;;;;;;;3.00;1.90;;;14.60;99.90;;;;;;5025290;28;20316;-92
2021/07/16 13:11:01;;;;;;;2.90;1.70;;;14.50;99.90;;;;;;5024056;28;20392;-92
2021/07/16 13:13:35;;;;;;;3.70;1.93;;;14.50;99.90;;;;;;5021130;28;20607;-92
2021/07/16 13:16:13;;;;;;;3.13;1.53;;;14.60;99.90;;;;;;5011089;28;20206;-92
2021/07/16 13:18:46;;;;;;;3.00;1.70;;;14.60;99.90;;;;;;4998157;28;20209;-92
2021/07/16 13:21:19;;;;;;;5.23;1.70;;;14.60;99.90;;;;;;4996824;28;20245;-93
2021/07/16 13:23:51;;;;;;;2.23;1.57;;;14.70;99.90;;;;;;4996934;28;20218;-94